sensor_id;sensor_type;location;lat;lon;timestamp;P1;durP1;ratioP1;P2;durP2;ratioP2
15108;SDS011;7655;51.076;-0.516;2022-10-31T00:01:59;3.80;;;2.20;;
15108;SDS011;7655;51.076;-0.516;2022-10-31T00:04:26;6.00;;;2.90;;
15108;SDS011;7655;51.076;-0.516;2022-10-31T00:06:54;5.27;;;2.87;;
15108;SDS011;7655;51.076;-0.516;2022-10-31T00:09:21;6.97;;;3.43;;
15108;SDS011;7655;51.076;-0.516;2022-10-31T00:11:50;5.47;;;3.13;;
15108;SDS011;7655;51.076;-0.516;2022-10-31T00:14:17;7.27;;;2.50;;
15108;SDS011;7655;51.076;-0.516;2022-10-31T00:16:45;7.07;;;2.87;;
15108;SDS011;7655;51.076;-0.516;2022-10-31T00:19:13;6.50;;;2.23;;
15108;SDS011;7655;51.076;-0.516;2022-10-31T00:21:40;7.30;;;2.07;;
15108;SDS011;7655;51.076;-0.516;2022-10-31T00:24:07;4.73;;;2.00;;
15108;SDS011;7655;51.076;-0.516;2022-10-31T00:26:35;3.87;;;2.17;;
15108;SDS011;7655;51.076;-0.516;2022-10-31T00:29:04;7.30;;;1.70;;
15108;SDS011;7655;51.076;-0.516;2022-10-31T00:31:31;3.40;;;1.97;;
15108;SDS011;7655;51.076;-0.516;2022-10-31T00:33:58;4.97;;;2.07;;
15108;SDS011;7655;51.076;-0.516;2022-10-31T00:36:28;5.30;;;1.97;;
15108;SDS011;7655;51.076;-0.516;2022-10-31T00:38:55;4.90;;;2.27;;
15108;SDS011;7655;51.076;-0.516;2022-10-31T00:41:22;9.37;;;2.57;;
15108;SDS011;7655;51.076;-0.516;2022-10-31T00:43:50;5.57;;;2.50;;
15108;SDS011;7655;51.076;-0.516;2022-10-31T00:46:19;4.80;;;2.20;;
15108;SDS011;7655;51.076;-0.516;2022-10-31T00:48:46;6.80;;;2.70;;
15108;SDS011;7655;51.076;-0.516;2022-10-31T00:51:14;5.00;;;1.93;;
15108;SDS011;7655;51.076;-0.516;2022-10-31T00:53:41;6.37;;;2.00;;
15108;SDS011;7655;51.076;-0.516;2022-10-31T00:56:08;4.10;;;2.03;;
15108;SDS011;7655;51.076;-0.516;2022-10-31T00:58:36;6.50;;;2.10;;
15108;SDS011;7655;51.076;-0.516;2022-10-31T01:01:03;3.70;;;1.83;;
15108;SDS011;7655;51.076;-0.516;2022-10-31T01:03:32;3.13;;;1.80;;
15108;SDS011;7655;51.076;-0.516;2022-10-31T01:06:01;2.83;;;2.00;;
15108;SDS011;7655;51.076;-0.516;2022-10-31T01:08:29;4.37;;;1.90;;
15108;SDS011;7655;51.076;-0.516;2022-10-31T01:11:04;5.00;;;1.87;;
15108;SDS011;7655;51.076;-0.516;2022-10-31T01:13:32;3.20;;;1.67;;
15108;SDS011;7655;51.076;-0.516;2022-10-31T01:16:00;4.60;;;2.00;;
15108;SDS011;7655;51.076;-0.516;2022-10-31T01:18:28;3.27;;;1.90;;
15108;SDS011;7655;51.076;-0.516;2022-10-31T01:21:03;5.00;;;1.67;;
15108;SDS011;7655;51.076;-0.516;2022-10-31T01:23:31;4.27;;;1.83;;
15108;SDS011;7655;51.076;-0.516;2022-10-31T01:26:03;3.40;;;1.60;;
15108;SDS011;7655;51.076;-0.516;2022-10-31T01:28:31;4.63;;;1.93;;
15108;SDS011;7655;51.076;-0.516;2022-10-31T01:31:02;3.20;;;1.70;;
15108;SDS011;7655;51.076;-0.516;2022-10-31T01:33:30;3.67;;;2.00;;
15108;SDS011;7655;51.076;-0.516;2022-10-31T01:35:57;2.10;;;1.23;;
15108;SDS011;7655;51.076;-0.516;2022-10-31T01:38:26;3.70;;;2.00;;
15108;SDS011;7655;51.076;-0.516;2022-10-31T01:40:54;7.70;;;2.10;;
15108;SDS011;7655;51.076;-0.516;2022-10-31T01:43:21;3.93;;;2.23;;
15108;SDS011;7655;51.076;-0.516;2022-10-31T01:45:50;8.23;;;2.23;;
15108;SDS011;7655;51.076;-0.516;2022-10-31T01:48:20;5.50;;;2.10;;
15108;SDS011;7655;51.076;-0.516;2022-10-31T01:50:51;2.73;;;1.70;;
15108;SDS011;7655;51.076;-0.516;2022-10-31T01:53:20;5.43;;;2.00;;
15108;SDS011;7655;51.076;-0.516;2022-10-31T01:55:50;2.93;;;1.70;;
15108;SDS011;7655;51.076;-0.516;2022-10-31T01:58:18;4.53;;;1.87;;
15108;SDS011;7655;51.076;-0.516;2022-10-31T02:00:46;4.37;;;1.40;;
15108;SDS011;7655;51.076;-0.516;2022-10-31T02:03:16;4.73;;;1.80;;
15108;SDS011;7655;51.076;-0.516;2022-10-31T02:05:44;4.70;;;1.40;;
15108;SDS011;7655;51.076;-0.516;2022-10-31T02:08:12;8.33;;;2.07;;
15108;SDS011;7655;51.076;-0.516;2022-10-31T02:10:41;5.57;;;1.80;;
15108;SDS011;7655;51.076;-0.516;2022-10-31T02:13:11;6.03;;;1.70;;
15108;SDS011;7655;51.076;-0.516;2022-10-31T02:15:39;3.00;;;1.30;;
15108;SDS011;7655;51.076;-0.516;2022-10-31T02:18:07;5.17;;;1.43;;
15108;SDS011;7655;51.076;-0.516;2022-10-31T02:20:37;3.63;;;1.40;;
15108;SDS011;7655;51.076;-0.516;2022-10-31T02:23:20;6.73;;;1.30;;
15108;SDS011;7655;51.076;-0.516;2022-10-31T02:26:02;7.70;;;1.47;;
15108;SDS011;7655;51.076;-0.516;2022-10-31T02:28:45;6.47;;;1.60;;
15108;SDS011;7655;51.076;-0.516;2022-10-31T02:31:22;3.57;;;1.43;;
15108;SDS011;7655;51.076;-0.516;2022-10-31T02:33:55;6.60;;;1.43;;
15108;SDS011;7655;51.076;-0.516;2022-10-31T02:36:25;4.23;;;1.47;;
15108;SDS011;7655;51.076;-0.516;2022-10-31T02:38:56;4.33;;;0.90;;
15108;SDS011;7655;51.076;-0.516;2022-10-31T02:41:30;5.30;;;1.43;;
15108;SDS011;7655;51.076;-0.516;2022-10-31T02:44:02;6.97;;;1.50;;
15108;SDS011;7655;51.076;-0.516;2022-10-31T02:46:34;9.93;;;1.97;;
15108;SDS011;7655;51.076;-0.516;2022-10-31T02:49:05;3.70;;;1.80;;
15108;SDS011;7655;51.076;-0.516;2022-10-31T02:51:33;5.53;;;2.30;;
15108;SDS011;7655;51.076;-0.516;2022-10-31T02:54:01;10.03;;;3.13;;
15108;SDS011;7655;51.076;-0.516;2022-10-31T02:56:29;5.93;;;2.10;;
15108;SDS011;7655;51.076;-0.516;2022-10-31T02:58:57;8.60;;;3.03;;
15108;SDS011;7655;51.076;-0.516;2022-10-31T03:04:14;10.13;;;4.37;;
15108;SDS011;7655;51.076;-0.516;2022-10-31T03:06:45;14.33;;;4.17;;
15108;SDS011;7655;51.076;-0.516;2022-10-31T03:09:16;8.23;;;3.67;;
15108;SDS011;7655;51.076;-0.516;2022-10-31T03:11:49;13.23;;;5.50;;
15108;SDS011;7655;51.076;-0.516;2022-10-31T03:14:21;15.00;;;7.57;;
15108;SDS011;7655;51.076;-0.516;2022-10-31T03:16:51;9.63;;;6.37;;
15108;SDS011;7655;51.076;-0.516;2022-10-31T03:19:22;12.27;;;5.90;;
15108;SDS011;7655;51.076;-0.516;2022-10-31T03:21:50;11.13;;;4.80;;
15108;SDS011;7655;51.076;-0.516;2022-10-31T03:24:20;7.57;;;4.03;;
15108;SDS011;7655;51.076;-0.516;2022-10-31T03:26:53;6.13;;;3.80;;
15108;SDS011;7655;51.076;-0.516;2022-10-31T03:29:22;6.20;;;4.40;;
15108;SDS011;7655;51.076;-0.516;2022-10-31T03:31:51;7.17;;;4.57;;
15108;SDS011;7655;51.076;-0.516;2022-10-31T03:34:22;7.47;;;3.73;;
15108;SDS011;7655;51.076;-0.516;2022-10-31T03:36:50;5.93;;;3.97;;
15108;SDS011;7655;51.076;-0.516;2022-10-31T03:39:19;15.37;;;3.97;;
15108;SDS011;7655;51.076;-0.516;2022-10-31T03:41:56;7.60;;;3.47;;
15108;SDS011;7655;51.076;-0.516;2022-10-31T03:44:24;7.10;;;3.33;;
15108;SDS011;7655;51.076;-0.516;2022-10-31T03:46:53;5.90;;;3.37;;
15108;SDS011;7655;51.076;-0.516;2022-10-31T03:49:22;13.00;;;3.30;;
15108;SDS011;7655;51.076;-0.516;2022-10-31T03:51:54;11.70;;;3.70;;
15108;SDS011;7655;51.076;-0.516;2022-10-31T03:54:25;7.77;;;3.23;;
15108;SDS011;7655;51.076;-0.516;2022-10-31T03:56:53;7.33;;;3.37;;
15108;SDS011;7655;51.076;-0.516;2022-10-31T03:59:23;8.10;;;2.63;;
15108;SDS011;7655;51.076;-0.516;2022-10-31T04:01:52;6.40;;;2.60;;
15108;SDS011;7655;51.076;-0.516;2022-10-31T04:04:20;9.37;;;3.00;;
15108;SDS011;7655;51.076;-0.516;2022-10-31T04:06:49;6.07;;;2.50;;
15108;SDS011;7655;51.076;-0.516;2022-10-31T04:09:17;4.23;;;2.60;;
15108;SDS011;7655;51.076;-0.516;2022-10-31T04:11:46;5.00;;;3.07;;
15108;SDS011;7655;51.076;-0.516;2022-10-31T04:14:15;4.37;;;2.77;;
15108;SDS011;7655;51.076;-0.516;2022-10-31T04:16:43;5.70;;;2.60;;
15108;SDS011;7655;51.076;-0.516;2022-10-31T04:19:11;7.30;;;2.73;;
15108;SDS011;7655;51.076;-0.516;2022-10-31T04:21:39;6.27;;;2.30;;
15108;SDS011;7655;51.076;-0.516;2022-10-31T04:24:09;6.00;;;2.33;;
15108;SDS011;7655;51.076;-0.516;2022-10-31T04:26:37;7.30;;;2.10;;
15108;SDS011;7655;51.076;-0.516;2022-10-31T04:29:04;6.57;;;2.00;;
15108;SDS011;7655;51.076;-0.516;2022-10-31T04:31:32;8.13;;;1.90;;
15108;SDS011;7655;51.076;-0.516;2022-10-31T04:33:59;4.93;;;2.00;;
15108;SDS011;7655;51.076;-0.516;2022-10-31T04:36:27;2.47;;;1.67;;
15108;SDS011;7655;51.076;-0.516;2022-10-31T04:38:54;2.73;;;1.40;;
15108;SDS011;7655;51.076;-0.516;2022-10-31T04:41:23;2.43;;;1.57;;
15108;SDS011;7655;51.076;-0.516;2022-10-31T04:43:50;2.57;;;1.40;;
15108;SDS011;7655;51.076;-0.516;2022-10-31T04:46:18;2.93;;;1.57;;
15108;SDS011;7655;51.076;-0.516;2022-10-31T04:48:45;4.77;;;1.70;;
15108;SDS011;7655;51.076;-0.516;2022-10-31T04:51:13;2.07;;;1.13;;
15108;SDS011;7655;51.076;-0.516;2022-10-31T04:53:40;4.23;;;1.10;;
15108;SDS011;7655;51.076;-0.516;2022-10-31T04:56:08;3.87;;;1.30;;
15108;SDS011;7655;51.076;-0.516;2022-10-31T04:58:36;5.30;;;1.70;;
15108;SDS011;7655;51.076;-0.516;2022-10-31T05:01:04;1.37;;;0.73;;
15108;SDS011;7655;51.076;-0.516;2022-10-31T05:03:31;3.27;;;1.00;;
15108;SDS011;7655;51.076;-0.516;2022-10-31T05:05:59;5.90;;;1.43;;
15108;SDS011;7655;51.076;-0.516;2022-10-31T05:08:26;11.63;;;2.00;;
15108;SDS011;7655;51.076;-0.516;2022-10-31T05:10:55;3.73;;;1.90;;
15108;SDS011;7655;51.076;-0.516;2022-10-31T05:13:26;5.80;;;1.63;;
15108;SDS011;7655;51.076;-0.516;2022-10-31T05:15:55;6.63;;;1.70;;
15108;SDS011;7655;51.076;-0.516;2022-10-31T05:18:25;9.50;;;2.07;;
15108;SDS011;7655;51.076;-0.516;2022-10-31T05:20:52;6.23;;;1.83;;
15108;SDS011;7655;51.076;-0.516;2022-10-31T05:23:20;4.60;;;1.60;;
15108;SDS011;7655;51.076;-0.516;2022-10-31T05:25:47;3.30;;;1.73;;
15108;SDS011;7655;51.076;-0.516;2022-10-31T05:28:15;6.07;;;1.73;;
15108;SDS011;7655;51.076;-0.516;2022-10-31T05:30:42;4.83;;;1.43;;
15108;SDS011;7655;51.076;-0.516;2022-10-31T05:33:11;3.93;;;1.70;;
15108;SDS011;7655;51.076;-0.516;2022-10-31T05:35:38;3.77;;;1.60;;
15108;SDS011;7655;51.076;-0.516;2022-10-31T05:38:06;2.47;;;1.43;;
15108;SDS011;7655;51.076;-0.516;2022-10-31T05:40:33;5.37;;;1.50;;
15108;SDS011;7655;51.076;-0.516;2022-10-31T05:43:01;4.93;;;1.70;;
15108;SDS011;7655;51.076;-0.516;2022-10-31T05:45:28;6.23;;;1.83;;
15108;SDS011;7655;51.076;-0.516;2022-10-31T05:47:56;4.17;;;1.67;;
15108;SDS011;7655;51.076;-0.516;2022-10-31T05:50:26;12.20;;;1.80;;
15108;SDS011;7655;51.076;-0.516;2022-10-31T05:52:54;5.77;;;1.43;;
15108;SDS011;7655;51.076;-0.516;2022-10-31T05:55:21;3.87;;;1.30;;
15108;SDS011;7655;51.076;-0.516;2022-10-31T05:57:49;3.40;;;1.30;;
15108;SDS011;7655;51.076;-0.516;2022-10-31T06:00:17;5.43;;;1.20;;
15108;SDS011;7655;51.076;-0.516;2022-10-31T06:02:45;2.37;;;1.10;;
15108;SDS011;7655;51.076;-0.516;2022-10-31T06:05:12;16.63;;;1.50;;
15108;SDS011;7655;51.076;-0.516;2022-10-31T06:07:43;2.40;;;1.07;;
15108;SDS011;7655;51.076;-0.516;2022-10-31T06:10:10;4.83;;;0.93;;
15108;SDS011;7655;51.076;-0.516;2022-10-31T06:12:37;1.43;;;1.07;;
15108;SDS011;7655;51.076;-0.516;2022-10-31T06:15:06;2.57;;;0.90;;
15108;SDS011;7655;51.076;-0.516;2022-10-31T06:17:33;3.37;;;1.00;;
15108;SDS011;7655;51.076;-0.516;2022-10-31T06:20:01;1.17;;;0.77;;
15108;SDS011;7655;51.076;-0.516;2022-10-31T06:22:28;1.40;;;1.00;;
15108;SDS011;7655;51.076;-0.516;2022-10-31T06:24:57;2.70;;;1.07;;
15108;SDS011;7655;51.076;-0.516;2022-10-31T06:27:25;9.60;;;1.50;;
15108;SDS011;7655;51.076;-0.516;2022-10-31T06:29:52;7.97;;;1.43;;
15108;SDS011;7655;51.076;-0.516;2022-10-31T06:32:20;3.73;;;1.20;;
15108;SDS011;7655;51.076;-0.516;2022-10-31T06:34:48;18.47;;;3.50;;
15108;SDS011;7655;51.076;-0.516;2022-10-31T06:37:15;8.43;;;2.50;;
15108;SDS011;7655;51.076;-0.516;2022-10-31T06:39:43;6.87;;;2.67;;
15108;SDS011;7655;51.076;-0.516;2022-10-31T06:42:11;8.70;;;2.53;;
15108;SDS011;7655;51.076;-0.516;2022-10-31T06:44:39;9.63;;;3.20;;
15108;SDS011;7655;51.076;-0.516;2022-10-31T06:47:06;5.37;;;2.80;;
15108;SDS011;7655;51.076;-0.516;2022-10-31T06:49:34;5.03;;;2.87;;
15108;SDS011;7655;51.076;-0.516;2022-10-31T06:52:01;7.83;;;3.10;;
15108;SDS011;7655;51.076;-0.516;2022-10-31T06:54:29;6.30;;;3.07;;
15108;SDS011;7655;51.076;-0.516;2022-10-31T06:56:56;6.33;;;3.13;;
15108;SDS011;7655;51.076;-0.516;2022-10-31T06:59:25;8.90;;;3.73;;
15108;SDS011;7655;51.076;-0.516;2022-10-31T07:01:52;9.67;;;3.60;;
15108;SDS011;7655;51.076;-0.516;2022-10-31T07:04:20;8.63;;;3.87;;
15108;SDS011;7655;51.076;-0.516;2022-10-31T07:06:50;8.97;;;3.30;;
15108;SDS011;7655;51.076;-0.516;2022-10-31T07:09:17;7.90;;;3.27;;
15108;SDS011;7655;51.076;-0.516;2022-10-31T07:11:45;7.53;;;3.37;;
15108;SDS011;7655;51.076;-0.516;2022-10-31T07:14:12;8.50;;;3.40;;
15108;SDS011;7655;51.076;-0.516;2022-10-31T07:16:41;10.60;;;3.83;;
15108;SDS011;7655;51.076;-0.516;2022-10-31T07:19:08;11.50;;;3.03;;
15108;SDS011;7655;51.076;-0.516;2022-10-31T07:21:36;9.83;;;3.47;;
15108;SDS011;7655;51.076;-0.516;2022-10-31T07:24:04;10.13;;;3.30;;
15108;SDS011;7655;51.076;-0.516;2022-10-31T07:26:31;4.07;;;2.53;;
15108;SDS011;7655;51.076;-0.516;2022-10-31T07:28:59;16.87;;;3.20;;
15108;SDS011;7655;51.076;-0.516;2022-10-31T07:31:26;11.13;;;3.60;;
15108;SDS011;7655;51.076;-0.516;2022-10-31T07:33:55;8.37;;;2.80;;
15108;SDS011;7655;51.076;-0.516;2022-10-31T07:36:22;9.00;;;3.17;;
15108;SDS011;7655;51.076;-0.516;2022-10-31T07:38:50;8.17;;;3.10;;
15108;SDS011;7655;51.076;-0.516;2022-10-31T07:41:17;8.27;;;3.13;;
15108;SDS011;7655;51.076;-0.516;2022-10-31T07:43:45;6.70;;;2.90;;
15108;SDS011;7655;51.076;-0.516;2022-10-31T07:46:12;6.90;;;2.67;;
15108;SDS011;7655;51.076;-0.516;2022-10-31T07:48:39;9.20;;;3.93;;
15108;SDS011;7655;51.076;-0.516;2022-10-31T07:51:08;6.97;;;3.00;;
15108;SDS011;7655;51.076;-0.516;2022-10-31T07:53:36;7.40;;;3.30;;
15108;SDS011;7655;51.076;-0.516;2022-10-31T07:56:03;6.97;;;2.93;;
15108;SDS011;7655;51.076;-0.516;2022-10-31T07:58:31;6.77;;;3.23;;
15108;SDS011;7655;51.076;-0.516;2022-10-31T08:00:58;7.97;;;3.10;;
15108;SDS011;7655;51.076;-0.516;2022-10-31T08:03:25;7.30;;;2.93;;
15108;SDS011;7655;51.076;-0.516;2022-10-31T08:05:53;6.70;;;3.03;;
15108;SDS011;7655;51.076;-0.516;2022-10-31T08:08:22;6.77;;;3.00;;
15108;SDS011;7655;51.076;-0.516;2022-10-31T08:10:53;5.57;;;2.93;;
15108;SDS011;7655;51.076;-0.516;2022-10-31T08:13:20;5.00;;;2.60;;
15108;SDS011;7655;51.076;-0.516;2022-10-31T08:15:48;9.67;;;3.10;;
15108;SDS011;7655;51.076;-0.516;2022-10-31T08:18:17;7.87;;;2.90;;
15108;SDS011;7655;51.076;-0.516;2022-10-31T08:20:45;5.40;;;2.53;;
15108;SDS011;7655;51.076;-0.516;2022-10-31T08:23:12;6.10;;;2.67;;
15108;SDS011;7655;51.076;-0.516;2022-10-31T08:25:42;5.77;;;2.17;;
15108;SDS011;7655;51.076;-0.516;2022-10-31T08:28:13;5.70;;;2.50;;
15108;SDS011;7655;51.076;-0.516;2022-10-31T08:30:41;6.17;;;2.30;;
15108;SDS011;7655;51.076;-0.516;2022-10-31T08:33:09;5.10;;;2.50;;
15108;SDS011;7655;51.076;-0.516;2022-10-31T08:35:37;4.70;;;2.07;;
15108;SDS011;7655;51.076;-0.516;2022-10-31T08:38:04;3.97;;;2.00;;
15108;SDS011;7655;51.076;-0.516;2022-10-31T08:40:33;8.20;;;2.27;;
15108;SDS011;7655;51.076;-0.516;2022-10-31T08:43:04;8.67;;;1.97;;
15108;SDS011;7655;51.076;-0.516;2022-10-31T08:45:32;6.30;;;2.50;;
15108;SDS011;7655;51.076;-0.516;2022-10-31T08:48:00;8.83;;;2.10;;
15108;SDS011;7655;51.076;-0.516;2022-10-31T08:50:28;12.00;;;2.27;;
15108;SDS011;7655;51.076;-0.516;2022-10-31T08:52:59;13.83;;;2.67;;
15108;SDS011;7655;51.076;-0.516;2022-10-31T08:55:27;10.87;;;2.40;;
15108;SDS011;7655;51.076;-0.516;2022-10-31T08:57:55;13.20;;;3.47;;
15108;SDS011;7655;51.076;-0.516;2022-10-31T09:00:24;13.20;;;2.57;;
15108;SDS011;7655;51.076;-0.516;2022-10-31T10:23:57;16.83;;;5.60;;
15108;SDS011;7655;51.076;-0.516;2022-10-31T10:26:29;14.43;;;4.93;;
15108;SDS011;7655;51.076;-0.516;2022-10-31T10:28:57;17.43;;;5.27;;
15108;SDS011;7655;51.076;-0.516;2022-10-31T10:31:27;14.10;;;3.70;;
15108;SDS011;7655;51.076;-0.516;2022-10-31T10:33:58;12.87;;;3.20;;
15108;SDS011;7655;51.076;-0.516;2022-10-31T10:36:28;8.30;;;2.77;;
15108;SDS011;7655;51.076;-0.516;2022-10-31T10:39:02;10.07;;;2.27;;
15108;SDS011;7655;51.076;-0.516;2022-10-31T10:41:31;11.13;;;2.37;;
15108;SDS011;7655;51.076;-0.516;2022-10-31T10:43:58;8.00;;;2.20;;
15108;SDS011;7655;51.076;-0.516;2022-10-31T10:46:26;7.03;;;2.10;;
15108;SDS011;7655;51.076;-0.516;2022-10-31T10:49:15;7.03;;;1.60;;
15108;SDS011;7655;51.076;-0.516;2022-10-31T10:51:44;5.07;;;1.73;;
15108;SDS011;7655;51.076;-0.516;2022-10-31T10:56:59;3.97;;;1.33;;
15108;SDS011;7655;51.076;-0.516;2022-10-31T10:59:27;4.67;;;1.30;;
15108;SDS011;7655;51.076;-0.516;2022-10-31T11:01:55;6.50;;;1.43;;
15108;SDS011;7655;51.076;-0.516;2022-10-31T11:04:28;4.63;;;1.30;;
15108;SDS011;7655;51.076;-0.516;2022-10-31T11:06:56;5.60;;;1.40;;
15108;SDS011;7655;51.076;-0.516;2022-10-31T11:09:23;4.30;;;1.27;;
15108;SDS011;7655;51.076;-0.516;2022-10-31T11:11:52;6.20;;;1.50;;
15108;SDS011;7655;51.076;-0.516;2022-10-31T11:14:22;6.30;;;1.90;;
15108;SDS011;7655;51.076;-0.516;2022-10-31T11:16:52;7.27;;;2.03;;
15108;SDS011;7655;51.076;-0.516;2022-10-31T11:19:22;4.43;;;1.20;;
15108;SDS011;7655;51.076;-0.516;2022-10-31T11:21:50;4.27;;;1.33;;
15108;SDS011;7655;51.076;-0.516;2022-10-31T11:24:18;4.87;;;1.07;;
15108;SDS011;7655;51.076;-0.516;2022-10-31T11:26:46;6.57;;;1.30;;
15108;SDS011;7655;51.076;-0.516;2022-10-31T11:29:15;5.93;;;1.40;;
15108;SDS011;7655;51.076;-0.516;2022-10-31T11:31:45;6.13;;;1.27;;
15108;SDS011;7655;51.076;-0.516;2022-10-31T11:34:14;5.40;;;1.27;;
15108;SDS011;7655;51.076;-0.516;2022-10-31T11:36:43;6.00;;;1.07;;
15108;SDS011;7655;51.076;-0.516;2022-10-31T11:39:15;6.73;;;1.20;;
15108;SDS011;7655;51.076;-0.516;2022-10-31T11:41:44;4.90;;;1.23;;
15108;SDS011;7655;51.076;-0.516;2022-10-31T11:44:12;6.53;;;1.70;;
15108;SDS011;7655;51.076;-0.516;2022-10-31T11:46:42;7.50;;;1.10;;
15108;SDS011;7655;51.076;-0.516;2022-10-31T11:49:13;4.33;;;0.83;;
15108;SDS011;7655;51.076;-0.516;2022-10-31T11:51:42;4.13;;;0.87;;
15108;SDS011;7655;51.076;-0.516;2022-10-31T11:54:17;4.57;;;1.23;;
15108;SDS011;7655;51.076;-0.516;2022-10-31T11:56:46;5.03;;;0.90;;
15108;SDS011;7655;51.076;-0.516;2022-10-31T12:01:59;4.07;;;1.33;;
15108;SDS011;7655;51.076;-0.516;2022-10-31T12:04:31;4.83;;;1.10;;
15108;SDS011;7655;51.076;-0.516;2022-10-31T12:06:59;3.73;;;0.80;;
15108;SDS011;7655;51.076;-0.516;2022-10-31T12:09:28;5.57;;;1.07;;
15108;SDS011;7655;51.076;-0.516;2022-10-31T12:12:15;2.10;;;0.70;;
15108;SDS011;7655;51.076;-0.516;2022-10-31T12:14:48;3.83;;;0.80;;
15108;SDS011;7655;51.076;-0.516;2022-10-31T12:17:18;5.07;;;1.23;;
15108;SDS011;7655;51.076;-0.516;2022-10-31T12:19:54;3.83;;;0.70;;
15108;SDS011;7655;51.076;-0.516;2022-10-31T12:22:26;1.33;;;0.80;;
15108;SDS011;7655;51.076;-0.516;2022-10-31T12:25:00;4.73;;;0.83;;
15108;SDS011;7655;51.076;-0.516;2022-10-31T12:27:34;4.73;;;0.97;;
15108;SDS011;7655;51.076;-0.516;2022-10-31T12:30:14;4.30;;;1.03;;
15108;SDS011;7655;51.076;-0.516;2022-10-31T12:32:48;4.20;;;0.97;;
15108;SDS011;7655;51.076;-0.516;2022-10-31T12:38:10;3.70;;;0.77;;
15108;SDS011;7655;51.076;-0.516;2022-10-31T12:40:43;2.57;;;0.93;;
15108;SDS011;7655;51.076;-0.516;2022-10-31T12:43:18;3.33;;;0.70;;
15108;SDS011;7655;51.076;-0.516;2022-10-31T12:45:52;1.87;;;0.63;;
15108;SDS011;7655;51.076;-0.516;2022-10-31T12:48:28;3.77;;;0.90;;
15108;SDS011;7655;51.076;-0.516;2022-10-31T12:50:59;1.53;;;0.60;;
15108;SDS011;7655;51.076;-0.516;2022-10-31T12:53:39;4.57;;;0.90;;
15108;SDS011;7655;51.076;-0.516;2022-10-31T12:56:16;3.07;;;0.77;;
15108;SDS011;7655;51.076;-0.516;2022-10-31T12:58:46;2.07;;;0.67;;
15108;SDS011;7655;51.076;-0.516;2022-10-31T13:01:15;3.27;;;1.20;;
15108;SDS011;7655;51.076;-0.516;2022-10-31T13:03:45;2.10;;;0.80;;
15108;SDS011;7655;51.076;-0.516;2022-10-31T13:06:14;1.80;;;0.70;;
15108;SDS011;7655;51.076;-0.516;2022-10-31T13:08:47;3.47;;;0.60;;
15108;SDS011;7655;51.076;-0.516;2022-10-31T13:11:15;4.63;;;1.00;;
15108;SDS011;7655;51.076;-0.516;2022-10-31T13:13:45;3.33;;;1.23;;
15108;SDS011;7655;51.076;-0.516;2022-10-31T13:16:15;2.17;;;0.63;;
15108;SDS011;7655;51.076;-0.516;2022-10-31T13:18:44;4.70;;;1.07;;
15108;SDS011;7655;51.076;-0.516;2022-10-31T13:21:18;3.90;;;0.80;;
15108;SDS011;7655;51.076;-0.516;2022-10-31T13:23:48;2.90;;;0.83;;
15108;SDS011;7655;51.076;-0.516;2022-10-31T13:26:20;3.30;;;0.70;;
15108;SDS011;7655;51.076;-0.516;2022-10-31T13:28:50;1.27;;;0.70;;
15108;SDS011;7655;51.076;-0.516;2022-10-31T13:31:21;5.07;;;0.80;;
15108;SDS011;7655;51.076;-0.516;2022-10-31T13:33:50;2.63;;;0.80;;
15108;SDS011;7655;51.076;-0.516;2022-10-31T13:36:21;4.83;;;0.70;;
15108;SDS011;7655;51.076;-0.516;2022-10-31T13:38:53;3.00;;;0.80;;
15108;SDS011;7655;51.076;-0.516;2022-10-31T13:41:32;3.57;;;0.70;;
15108;SDS011;7655;51.076;-0.516;2022-10-31T13:44:02;2.83;;;0.60;;
15108;SDS011;7655;51.076;-0.516;2022-10-31T13:46:35;3.30;;;0.90;;
15108;SDS011;7655;51.076;-0.516;2022-10-31T13:49:03;6.50;;;2.20;;
15108;SDS011;7655;51.076;-0.516;2022-10-31T13:51:31;6.70;;;1.13;;
15108;SDS011;7655;51.076;-0.516;2022-10-31T13:54:05;4.70;;;0.83;;
15108;SDS011;7655;51.076;-0.516;2022-10-31T13:56:33;2.73;;;0.77;;
15108;SDS011;7655;51.076;-0.516;2022-10-31T13:59:04;3.63;;;1.00;;
15108;SDS011;7655;51.076;-0.516;2022-10-31T14:01:32;5.53;;;1.00;;
15108;SDS011;7655;51.076;-0.516;2022-10-31T14:04:02;3.10;;;1.10;;
15108;SDS011;7655;51.076;-0.516;2022-10-31T14:06:41;4.07;;;0.90;;
15108;SDS011;7655;51.076;-0.516;2022-10-31T14:09:19;2.07;;;1.13;;
15108;SDS011;7655;51.076;-0.516;2022-10-31T14:11:47;4.30;;;0.97;;
15108;SDS011;7655;51.076;-0.516;2022-10-31T14:14:15;4.07;;;1.13;;
15108;SDS011;7655;51.076;-0.516;2022-10-31T14:16:44;4.57;;;1.47;;
15108;SDS011;7655;51.076;-0.516;2022-10-31T14:19:14;3.03;;;1.00;;
15108;SDS011;7655;51.076;-0.516;2022-10-31T14:21:43;2.30;;;0.87;;
15108;SDS011;7655;51.076;-0.516;2022-10-31T14:24:15;4.03;;;0.80;;
15108;SDS011;7655;51.076;-0.516;2022-10-31T14:26:52;2.53;;;1.03;;
15108;SDS011;7655;51.076;-0.516;2022-10-31T14:29:21;2.07;;;0.87;;
15108;SDS011;7655;51.076;-0.516;2022-10-31T14:31:53;4.03;;;1.03;;
15108;SDS011;7655;51.076;-0.516;2022-10-31T14:34:26;3.63;;;1.03;;
15108;SDS011;7655;51.076;-0.516;2022-10-31T14:37:08;1.90;;;0.80;;
15108;SDS011;7655;51.076;-0.516;2022-10-31T14:39:40;3.90;;;1.27;;
15108;SDS011;7655;51.076;-0.516;2022-10-31T14:42:21;2.63;;;0.70;;
15108;SDS011;7655;51.076;-0.516;2022-10-31T14:44:56;2.90;;;1.10;;
15108;SDS011;7655;51.076;-0.516;2022-10-31T14:47:31;3.17;;;1.10;;
15108;SDS011;7655;51.076;-0.516;2022-10-31T14:52:49;3.87;;;1.30;;
15108;SDS011;7655;51.076;-0.516;2022-10-31T14:55:17;6.00;;;1.50;;
15108;SDS011;7655;51.076;-0.516;2022-10-31T14:57:48;4.23;;;1.40;;
15108;SDS011;7655;51.076;-0.516;2022-10-31T15:00:18;4.03;;;1.20;;
15108;SDS011;7655;51.076;-0.516;2022-10-31T15:02:48;2.40;;;0.90;;
15108;SDS011;7655;51.076;-0.516;2022-10-31T15:05:17;4.77;;;1.67;;
15108;SDS011;7655;51.076;-0.516;2022-10-31T15:07:50;3.50;;;1.83;;
15108;SDS011;7655;51.076;-0.516;2022-10-31T15:10:21;4.60;;;1.50;;
15108;SDS011;7655;51.076;-0.516;2022-10-31T15:12:52;7.13;;;1.87;;
15108;SDS011;7655;51.076;-0.516;2022-10-31T15:15:20;5.53;;;2.10;;
15108;SDS011;7655;51.076;-0.516;2022-10-31T15:17:49;5.67;;;1.57;;
15108;SDS011;7655;51.076;-0.516;2022-10-31T15:20:17;10.03;;;2.40;;
15108;SDS011;7655;51.076;-0.516;2022-10-31T15:22:45;5.77;;;1.87;;
15108;SDS011;7655;51.076;-0.516;2022-10-31T15:25:16;3.57;;;1.30;;
15108;SDS011;7655;51.076;-0.516;2022-10-31T15:27:44;5.20;;;2.20;;
15108;SDS011;7655;51.076;-0.516;2022-10-31T15:30:20;3.67;;;2.07;;
15108;SDS011;7655;51.076;-0.516;2022-10-31T15:32:48;6.17;;;2.37;;
15108;SDS011;7655;51.076;-0.516;2022-10-31T15:35:20;6.93;;;3.70;;
15108;SDS011;7655;51.076;-0.516;2022-10-31T15:37:48;4.37;;;2.13;;
15108;SDS011;7655;51.076;-0.516;2022-10-31T15:40:16;7.27;;;2.43;;
15108;SDS011;7655;51.076;-0.516;2022-10-31T15:42:45;6.13;;;2.10;;
15108;SDS011;7655;51.076;-0.516;2022-10-31T15:45:18;6.33;;;2.20;;
15108;SDS011;7655;51.076;-0.516;2022-10-31T15:47:49;4.03;;;2.07;;
15108;SDS011;7655;51.076;-0.516;2022-10-31T15:50:19;6.20;;;2.23;;
15108;SDS011;7655;51.076;-0.516;2022-10-31T15:52:48;4.73;;;2.10;;
15108;SDS011;7655;51.076;-0.516;2022-10-31T15:55:18;4.50;;;1.90;;
15108;SDS011;7655;51.076;-0.516;2022-10-31T15:57:47;3.77;;;1.87;;
15108;SDS011;7655;51.076;-0.516;2022-10-31T16:00:24;5.07;;;2.47;;
15108;SDS011;7655;51.076;-0.516;2022-10-31T16:03:05;4.13;;;2.17;;
15108;SDS011;7655;51.076;-0.516;2022-10-31T16:05:36;5.57;;;2.20;;
15108;SDS011;7655;51.076;-0.516;2022-10-31T16:08:04;7.87;;;2.47;;
15108;SDS011;7655;51.076;-0.516;2022-10-31T16:10:48;5.07;;;2.77;;
15108;SDS011;7655;51.076;-0.516;2022-10-31T16:13:15;8.40;;;4.03;;
15108;SDS011;7655;51.076;-0.516;2022-10-31T16:15:48;7.90;;;3.10;;
15108;SDS011;7655;51.076;-0.516;2022-10-31T16:18:16;8.23;;;3.60;;
15108;SDS011;7655;51.076;-0.516;2022-10-31T16:20:47;6.87;;;3.90;;
15108;SDS011;7655;51.076;-0.516;2022-10-31T16:23:17;7.67;;;3.87;;
15108;SDS011;7655;51.076;-0.516;2022-10-31T16:25:46;7.97;;;3.43;;
15108;SDS011;7655;51.076;-0.516;2022-10-31T16:28:15;7.30;;;4.00;;
15108;SDS011;7655;51.076;-0.516;2022-10-31T16:30:44;8.20;;;4.13;;
15108;SDS011;7655;51.076;-0.516;2022-10-31T16:33:23;8.10;;;4.20;;
15108;SDS011;7655;51.076;-0.516;2022-10-31T16:35:51;8.63;;;3.93;;